Time;durP1;ratioP1;P1;durP2;ratioP2;P2;SDS_P1;SDS_P2;PMS_P1;PMS_P2;Temp;Humidity;BMP_temperature;BMP_pressure;BME280_temperature;BME280_humidity;BME280_pressure;Samples;Min_cycle;Max_cycle;Signal;HPM_P1;HPM_P2
2021/06/16 00:00:04;;;;;;;12.38;7.93;;;16.40;83.10;;;;;;6121834;23;20438;-71
2021/06/16 00:02:30;;;;;;;11.68;7.78;;;16.40;83.10;;;;;;6123019;23;20005;-70
2021/06/16 00:04:57;;;;;;;10.70;7.85;;;16.30;83.00;;;;;;6122249;23;20788;-70
2021/06/16 00:07:23;;;;;;;9.30;7.25;;;16.30;83.00;;;;;;6122405;23;20025;-70
2021/06/16 00:09:50;;;;;;;11.18;8.07;;;16.30;83.00;;;;;;6122947;23;20105;-70
2021/06/16 00:12:16;;;;;;;13.65;8.70;;;16.30;83.00;;;;;;6121490;23;20013;-70
2021/06/16 00:14:43;;;;;;;12.35;7.82;;;16.30;83.00;;;;;;6123098;23;20437;-70
2021/06/16 00:17:10;;;;;;;12.52;8.13;;;16.30;83.00;;;;;;6121616;23;20006;-70
2021/06/16 00:19:36;;;;;;;10.20;7.47;;;16.30;82.90;;;;;;6120868;23;20006;-70
2021/06/16 00:22:03;;;;;;;11.32;7.45;;;16.30;83.00;;;;;;6122630;23;20053;-70
2021/06/16 00:25:10;;;;;;;9.23;7.40;;;16.30;83.00;;;;;;6122558;23;20013;-70
2021/06/16 00:28:16;;;;;;;9.60;8.13;;;16.30;82.90;;;;;;6122734;23;20036;-70
2021/06/16 00:30:42;;;;;;;12.38;8.25;;;16.30;82.80;;;;;;6121968;23;20002;-70
2021/06/16 00:33:09;;;;;;;10.43;8.15;;;16.30;82.90;;;;;;6122607;23;20088;-70
2021/06/16 00:35:35;;;;;;;12.48;8.00;;;16.30;82.80;;;;;;6122650;23;20013;-70
2021/06/16 00:38:05;;;;;;;9.13;7.78;;;16.30;82.70;;;;;;6121436;23;20453;-70
2021/06/16 00:40:31;;;;;;;10.00;8.40;;;16.20;82.60;;;;;;6122436;23;20011;-70
2021/06/16 00:43:00;;;;;;;13.45;9.35;;;16.20;82.70;;;;;;6121276;23;19998;-70
2021/06/16 00:45:27;;;;;;;13.27;8.30;;;16.20;82.60;;;;;;6123218;23;20385;-70
2021/06/16 00:47:57;;;;;;;10.82;8.98;;;16.20;82.70;;;;;;6121601;23;20033;-70
2021/06/16 00:50:31;;;;;;;12.40;8.50;;;16.20;82.70;;;;;;6122241;23;20426;-70
2021/06/16 00:53:37;;;;;;;11.07;8.88;;;16.20;82.70;;;;;;6122499;23;20005;-70
2021/06/16 00:56:43;;;;;;;9.82;8.80;;;16.20;82.70;;;;;;6121187;23;20010;-70
2021/06/16 01:00:01;;;;;;;11.18;9.38;;;16.20;82.70;;;;;;6120460;23;20013;-70
2021/06/16 01:03:25;;;;;;;11.13;8.68;;;16.20;82.70;;;;;;6122279;23;20458;-70
2021/06/16 01:06:46;;;;;;;13.57;8.50;;;16.20;82.60;;;;;;6122171;23;20017;-70
2021/06/16 01:09:36;;;;;;;10.68;8.23;;;16.20;82.60;;;;;;6118702;23;20018;-70
2021/06/16 01:12:08;;;;;;;9.80;8.35;;;16.10;82.60;;;;;;6122154;23;20002;-70
2021/06/16 01:15:14;;;;;;;11.07;8.73;;;16.20;82.60;;;;;;6122105;23;20085;-70
2021/06/16 01:18:30;;;;;;;12.05;8.85;;;16.10;82.70;;;;;;6120991;23;20012;-70
2021/06/16 01:21:36;;;;;;;9.93;8.10;;;16.10;82.60;;;;;;6121528;23;20022;-70
2021/06/16 01:24:42;;;;;;;11.07;7.57;;;16.10;82.60;;;;;;6122343;23;20028;-70
2021/06/16 01:27:48;;;;;;;13.10;7.85;;;16.10;82.70;;;;;;6121496;23;20089;-70
2021/06/16 01:30:15;;;;;;;10.32;7.93;;;16.10;82.60;;;;;;6120770;23;20002;-70
2021/06/16 01:32:41;;;;;;;12.00;7.85;;;16.10;82.60;;;;;;6122567;23;20002;-70
2021/06/16 01:35:09;;;;;;;10.27;7.18;;;16.10;82.60;;;;;;6121008;23;19998;-70
2021/06/16 01:37:35;;;;;;;9.38;8.30;;;16.10;82.60;;;;;;6121789;23;20006;-70
2021/06/16 01:40:03;;;;;;;8.57;6.85;;;16.10;82.50;;;;;;6121179;23;20046;-70
2021/06/16 01:42:30;;;;;;;9.27;7.70;;;16.10;82.50;;;;;;6121576;23;20005;-70
2021/06/16 01:44:58;;;;;;;9.13;6.80;;;16.10;82.50;;;;;;6121944;23;20060;-70
2021/06/16 01:47:25;;;;;;;11.95;7.30;;;16.10;82.50;;;;;;6121058;23;20006;-70
2021/06/16 01:49:58;;;;;;;10.38;6.63;;;16.10;82.50;;;;;;6121605;23;20006;-70
2021/06/16 01:52:26;;;;;;;7.53;5.88;;;16.00;82.50;;;;;;6120542;23;20350;-70
2021/06/16 01:54:55;;;;;;;9.90;7.40;;;16.10;82.60;;;;;;6122239;23;20069;-70
2021/06/16 01:57:23;;;;;;;10.52;6.80;;;16.00;82.60;;;;;;6121031;23;20088;-70
2021/06/16 01:59:53;;;;;;;8.48;6.63;;;16.10;82.70;;;;;;6121266;23;20014;-70
2021/06/16 02:02:19;;;;;;;8.02;6.00;;;16.00;82.80;;;;;;6122211;23;20718;-70
2021/06/16 02:04:46;;;;;;;9.32;6.68;;;16.00;82.80;;;;;;6120688;23;20029;-70
2021/06/16 02:07:21;;;;;;;7.63;6.47;;;16.00;82.80;;;;;;6122412;23;19998;-70
2021/06/16 02:09:49;;;;;;;8.38;6.35;;;16.00;82.90;;;;;;6120410;23;20153;-70
2021/06/16 02:12:20;;;;;;;18.80;7.95;;;16.00;83.00;;;;;;6121834;23;20453;-70
2021/06/16 02:15:15;;;;;;;9.15;5.75;;;16.00;83.00;;;;;;6119898;23;20013;-70
2021/06/16 02:17:48;;;;;;;9.18;6.57;;;16.00;83.00;;;;;;6117316;23;20010;-70
2021/06/16 02:20:18;;;;;;;9.30;6.40;;;16.00;83.10;;;;;;6121625;23;20014;-70
2021/06/16 02:22:46;;;;;;;9.63;6.07;;;16.00;83.10;;;;;;6120409;23;20532;-70
2021/06/16 02:25:14;;;;;;;7.57;5.57;;;16.00;83.20;;;;;;6121593;23;19998;-70
2021/06/16 02:27:41;;;;;;;12.93;5.55;;;16.00;83.30;;;;;;6120880;23;20002;-71
2021/06/16 02:30:08;;;;;;;12.15;6.78;;;16.00;83.30;;;;;;6121004;23;20006;-70
2021/06/16 02:32:36;;;;;;;9.43;5.13;;;16.00;83.40;;;;;;6122013;23;20307;-70
2021/06/16 02:35:04;;;;;;;10.88;5.63;;;16.00;83.40;;;;;;6120612;23;20002;-70
2021/06/16 02:37:31;;;;;;;7.60;6.53;;;16.00;83.50;;;;;;6121554;23;20005;-71
2021/06/16 02:40:03;;;;;;;7.93;6.22;;;16.00;83.60;;;;;;6120228;23;20320;-71
2021/06/16 02:42:30;;;;;;;17.52;11.82;;;16.00;83.80;;;;;;6121397;23;20303;-71
2021/06/16 02:45:00;;;;;;;15.98;12.60;;;16.00;83.90;;;;;;6120736;23;19998;-70
2021/06/16 02:47:27;;;;;;;13.57;10.82;;;16.00;84.10;;;;;;6120601;23;20010;-70
2021/06/16 02:49:57;;;;;;;11.15;9.57;;;16.00;84.60;;;;;;6121456;23;20002;-71
2021/06/16 02:52:25;;;;;;;10.45;8.13;;;16.00;84.40;;;;;;6120228;23;20001;-71
2021/06/16 02:55:02;;;;;;;11.68;7.80;;;16.00;84.50;;;;;;6121380;23;20096;-71
2021/06/16 02:57:34;;;;;;;13.18;7.40;;;16.00;84.50;;;;;;6120186;23;20025;-70
2021/06/16 03:00:04;;;;;;;8.60;6.60;;;16.00;84.60;;;;;;6121278;23;20554;-70
2021/06/16 03:02:32;;;;;;;10.48;6.72;;;16.00;84.50;;;;;;6122234;23;20137;-70
2021/06/16 03:04:59;;;;;;;8.77;6.80;;;16.00;84.50;;;;;;6123007;23;20013;-71
2021/06/16 03:07:28;;;;;;;8.75;6.13;;;16.00;84.50;;;;;;6123736;23;20005;-70
2021/06/16 03:09:55;;;;;;;7.13;6.30;;;16.00;84.50;;;;;;6121881;23;20041;-70
2021/06/16 03:12:23;;;;;;;7.40;6.18;;;16.00;84.40;;;;;;6121676;23;20299;-70
2021/06/16 03:14:51;;;;;;;8.90;6.13;;;16.00;84.40;;;;;;6122119;23;20073;-70
2021/06/16 03:17:19;;;;;;;8.63;6.05;;;16.00;84.40;;;;;;6123311;23;20012;-75
2021/06/16 03:19:48;;;;;;;8.25;6.38;;;16.00;84.40;;;;;;6121882;23;20456;-70
2021/06/16 03:22:17;;;;;;;8.15;7.15;;;16.00;84.50;;;;;;6122669;23;20006;-70
2021/06/16 03:24:46;;;;;;;13.25;10.30;;;16.00;84.50;;;;;;6123195;23;20002;-70
2021/06/16 03:27:13;;;;;;;13.57;11.60;;;16.00;84.50;;;;;;6122404;23;19997;-69
2021/06/16 03:29:41;;;;;;;13.48;11.60;;;16.00;84.50;;;;;;6122676;23;20033;-70
2021/06/16 03:32:09;;;;;;;11.18;10.00;;;16.00;84.50;;;;;;6121777;23;20081;-69
2021/06/16 03:34:36;;;;;;;10.90;9.75;;;16.00;84.60;;;;;;6123038;23;20009;-69
2021/06/16 03:37:05;;;;;;;10.75;9.18;;;16.00;84.50;;;;;;6122528;23;20456;-69
2021/06/16 03:39:32;;;;;;;15.50;9.23;;;16.00;84.50;;;;;;6122250;23;20006;-69
2021/06/16 03:41:59;;;;;;;10.63;8.43;;;16.00;84.50;;;;;;6123158;23;20013;-70
2021/06/16 03:44:27;;;;;;;11.43;7.70;;;15.90;84.50;;;;;;6121913;23;20006;-69
2021/06/16 03:46:54;;;;;;;12.25;8.73;;;15.90;84.50;;;;;;6122913;23;20110;-69
2021/06/16 03:49:22;;;;;;;12.02;8.40;;;16.00;84.50;;;;;;6121825;23;20013;-68
2021/06/16 03:51:50;;;;;;;10.38;8.13;;;15.90;84.50;;;;;;6122929;23;20002;-69
2021/06/16 03:54:18;;;;;;;7.75;6.82;;;15.90;84.60;;;;;;6122821;23;20026;-70
2021/06/16 03:56:47;;;;;;;8.90;7.72;;;15.90;84.60;;;;;;6122860;23;20009;-75
2021/06/16 03:59:15;;;;;;;8.88;6.97;;;16.00;84.70;;;;;;6122401;23;20414;-69
2021/06/16 04:01:46;;;;;;;9.52;7.47;;;15.90;84.70;;;;;;6120026;23;20385;-69
2021/06/16 04:04:13;;;;;;;14.27;12.25;;;15.90;84.70;;;;;;6120975;23;20371;-68
2021/06/16 04:06:45;;;;;;;15.18;11.93;;;16.00;84.90;;;;;;6121499;23;20316;-69
2021/06/16 04:09:12;;;;;;;12.35;10.25;;;16.00;84.90;;;;;;6122844;23;20092;-68
2021/06/16 04:11:43;;;;;;;12.05;10.55;;;15.90;84.90;;;;;;6121884;23;20005;-68
2021/06/16 04:14:10;;;;;;;11.80;8.93;;;15.90;84.90;;;;;;6121993;23;19998;-68
2021/06/16 04:16:42;;;;;;;14.02;8.45;;;15.90;84.90;;;;;;6123210;23;20005;-68
2021/06/16 04:19:08;;;;;;;12.48;8.93;;;15.90;85.00;;;;;;6121581;23;20308;-68
2021/06/16 04:21:35;;;;;;;10.18;8.70;;;15.90;85.00;;;;;;6122645;23;20018;-69
2021/06/16 04:24:02;;;;;;;8.80;7.47;;;15.90;85.10;;;;;;6121521;23;20036;-69
2021/06/16 04:26:28;;;;;;;10.23;7.82;;;15.90;85.20;;;;;;6122931;23;20002;-68
2021/06/16 04:28:55;;;;;;;10.68;7.93;;;15.90;85.20;;;;;;6120208;23;20024;-68
2021/06/16 04:31:21;;;;;;;11.38;7.20;;;15.90;85.30;;;;;;6121404;23;20005;-68
2021/06/16 04:33:48;;;;;;;10.88;7.13;;;15.90;85.30;;;;;;6122031;23;20013;-68
2021/06/16 04:36:14;;;;;;;9.60;7.88;;;15.90;85.30;;;;;;6119149;23;20009;-68
2021/06/16 04:38:41;;;;;;;8.23;6.32;;;15.90;85.30;;;;;;6122490;23;20037;-68
2021/06/16 04:41:08;;;;;;;9.15;6.78;;;15.90;85.30;;;;;;6120836;23;20510;-68
2021/06/16 04:43:34;;;;;;;9.32;6.28;;;15.90;85.30;;;;;;6122153;23;20010;-68
2021/06/16 04:46:02;;;;;;;11.60;7.13;;;15.90;85.30;;;;;;6121198;23;20376;-68
2021/06/16 04:48:29;;;;;;;10.65;6.90;;;15.90;85.30;;;;;;6121387;23;20012;-68
2021/06/16 04:51:35;;;;;;;8.60;6.63;;;15.80;85.90;;;;;;6121432;23;20077;-71
2021/06/16 04:54:01;;;;;;;13.30;10.60;;;15.90;85.30;;;;;;6121425;23;20005;-70
2021/06/16 04:56:28;;;;;;;14.50;11.50;;;15.90;85.30;;;;;;6122807;23;20012;-71
2021/06/16 04:58:54;;;;;;;20.13;13.05;;;15.90;85.30;;;;;;6121024;23;20002;-69
2021/06/16 05:01:21;;;;;;;15.75;12.18;;;15.90;85.40;;;;;;6121597;23;20097;-69
2021/06/16 05:03:48;;;;;;;12.50;10.45;;;15.90;85.50;;;;;;6121779;23;19998;-70
2021/06/16 05:06:14;;;;;;;14.40;10.40;;;15.90;85.50;;;;;;6121470;23;20040;-69
2021/06/16 05:08:41;;;;;;;11.88;9.27;;;15.90;85.60;;;;;;6121309;23;20307;-69
2021/06/16 05:11:07;;;;;;;11.77;8.75;;;15.90;85.60;;;;;;6120934;23;20029;-69
2021/06/16 05:13:34;;;;;;;11.15;8.00;;;15.90;85.70;;;;;;6121998;23;20008;-69
2021/06/16 05:16:00;;;;;;;9.48;8.38;;;15.80;85.80;;;;;;6120673;23;20426;-70
2021/06/16 05:18:27;;;;;;;12.50;8.60;;;15.90;85.90;;;;;;6121921;23;20033;-70
2021/06/16 05:20:54;;;;;;;15.32;9.85;;;15.90;85.90;;;;;;6120823;23;20017;-69
2021/06/16 05:23:24;;;;;;;12.07;9.35;;;15.90;86.00;;;;;;6121056;23;20556;-69
2021/06/16 05:25:52;;;;;;;12.50;11.13;;;15.90;86.00;;;;;;6121464;23;20010;-69
2021/06/16 05:28:19;;;;;;;11.25;10.05;;;15.90;86.10;;;;;;6120661;23;20501;-70
2021/06/16 05:30:45;;;;;;;11.55;9.35;;;15.90;86.10;;;;;;6121202;23;20005;-70
2021/06/16 05:33:14;;;;;;;16.25;12.25;;;15.90;86.20;;;;;;6120514;23;20006;-71
2021/06/16 05:35:41;;;;;;;14.02;12.27;;;15.90;86.20;;;;;;6122097;23;20013;-71
2021/06/16 05:38:10;;;;;;;13.93;10.68;;;15.90;86.20;;;;;;6120871;23;20064;-70
2021/06/16 05:40:37;;;;;;;10.63;9.52;;;16.00;86.30;;;;;;6120413;23;20010;-70
2021/06/16 05:43:03;;;;;;;13.65;10.85;;;15.90;86.20;;;;;;6121148;23;20086;-70
2021/06/16 05:45:30;;;;;;;10.65;9.48;;;15.90;86.20;;;;;;6120219;23;20005;-70
2021/06/16 05:47:57;;;;;;;10.90;8.90;;;15.90;86.20;;;;;;6121810;23;20009;-70
2021/06/16 05:50:23;;;;;;;9.68;8.68;;;15.90;86.20;;;;;;6120597;23;20005;-71
2021/06/16 05:52:50;;;;;;;11.43;8.52;;;15.90;86.20;;;;;;6121785;23;20414;-70
2021/06/16 05:55:16;;;;;;;13.57;9.18;;;15.90;86.20;;;;;;6121054;23;19998;-70
2021/06/16 05:57:43;;;;;;;10.98;8.52;;;15.90;86.20;;;;;;6120844;23;20033;-70
2021/06/16 06:00:13;;;;;;;12.90;9.43;;;15.90;86.30;;;;;;6121498;23;20012;-70
2021/06/16 06:02:41;;;;;;;11.38;9.15;;;15.90;86.30;;;;;;6118412;23;20404;-71
2021/06/16 06:05:08;;;;;;;10.73;8.82;;;15.90;86.40;;;;;;6121818;23;20013;-71
2021/06/16 06:07:34;;;;;;;11.30;9.95;;;15.90;86.40;;;;;;6118259;23;20013;-70
2021/06/16 06:10:01;;;;;;;13.35;9.38;;;15.90;86.40;;;;;;6120996;23;20028;-70
2021/06/16 06:12:28;;;;;;;11.23;9.18;;;15.90;86.40;;;;;;6119899;23;20036;-70
2021/06/16 06:14:54;;;;;;;12.25;10.07;;;15.90;86.50;;;;;;6121683;23;20002;-70
2021/06/16 06:17:21;;;;;;;16.05;10.48;;;15.90;86.50;;;;;;6121274;23;20505;-70
2021/06/16 06:19:48;;;;;;;15.60;10.68;;;16.00;86.60;;;;;;6120712;23;20485;-69
2021/06/16 06:22:14;;;;;;;11.77;10.15;;;16.00;86.60;;;;;;6121101;23;20009;-69
2021/06/16 06:24:41;;;;;;;14.38;11.65;;;16.00;86.70;;;;;;6120586;23;20564;-70
2021/06/16 06:27:08;;;;;;;14.20;10.57;;;16.00;86.70;;;;;;6121696;23;20013;-69
2021/06/16 06:29:34;;;;;;;12.32;10.05;;;16.00;86.70;;;;;;6119591;23;20576;-69
2021/06/16 06:32:03;;;;;;;12.52;9.27;;;16.00;86.70;;;;;;6120948;23;20010;-69
2021/06/16 06:34:29;;;;;;;11.40;9.93;;;16.00;86.70;;;;;;6121774;23;20370;-69
2021/06/16 06:36:56;;;;;;;12.80;10.25;;;16.00;86.70;;;;;;6118918;23;20342;-70
2021/06/16 06:39:22;;;;;;;16.35;10.90;;;16.00;86.80;;;;;;6120678;23;20692;-69
2021/06/16 06:42:29;;;;;;;13.57;10.88;;;16.00;86.80;;;;;;6118787;23;20017;-70
2021/06/16 06:45:35;;;;;;;14.70;11.68;;;16.00;86.90;;;;;;6119770;23;20006;-70
2021/06/16 06:48:01;;;;;;;16.73;11.95;;;16.00;86.90;;;;;;6119810;23;20446;-69
2021/06/16 06:50:28;;;;;;;16.13;12.27;;;16.10;87.10;;;;;;6118934;23;20100;-70
2021/06/16 06:52:55;;;;;;;14.65;12.57;;;16.00;87.00;;;;;;6120305;23;20085;-70
2021/06/16 06:55:21;;;;;;;15.20;11.30;;;16.00;87.00;;;;;;6118731;23;20455;-69
2021/06/16 06:57:48;;;;;;;13.15;11.43;;;16.00;87.10;;;;;;6119767;23;20337;-69
2021/06/16 07:00:15;;;;;;;13.20;10.82;;;16.10;87.20;;;;;;6118612;23;20014;-70
2021/06/16 07:02:46;;;;;;;13.63;10.25;;;16.10;87.30;;;;;;6119524;23;20034;-69
2021/06/16 07:05:13;;;;;;;12.10;9.50;;;16.10;87.30;;;;;;6119640;23;20093;-69
2021/06/16 07:07:39;;;;;;;10.98;9.10;;;16.10;87.20;;;;;;6118486;23;20030;-70
2021/06/16 07:10:06;;;;;;;10.68;9.13;;;16.10;87.20;;;;;;6119157;23;20041;-69
2021/06/16 07:12:33;;;;;;;10.35;8.93;;;16.10;87.30;;;;;;6118548;23;20026;-70
2021/06/16 07:15:00;;;;;;;9.38;8.13;;;16.10;87.40;;;;;;6119670;23;20092;-70
2021/06/16 07:17:28;;;;;;;8.68;7.35;;;16.10;87.30;;;;;;6117843;23;20029;-70
2021/06/16 07:19:55;;;;;;;8.73;7.25;;;16.10;87.40;;;;;;6118752;23;20085;-70
2021/06/16 07:22:21;;;;;;;9.20;6.90;;;16.20;87.50;;;;;;6118891;23;20013;-69
2021/06/16 07:24:48;;;;;;;7.90;6.57;;;16.20;87.50;;;;;;6118364;23;20056;-69
2021/06/16 07:27:14;;;;;;;9.25;5.75;;;16.20;87.60;;;;;;6119965;23;19998;-69
2021/06/16 07:29:41;;;;;;;6.60;5.95;;;16.20;87.60;;;;;;6117878;23;20136;-69
2021/06/16 07:32:09;;;;;;;5.63;5.13;;;16.20;87.70;;;;;;6119033;23;20006;-69
2021/06/16 07:34:35;;;;;;;6.40;4.82;;;16.20;87.70;;;;;;6117967;23;20009;-69
2021/06/16 07:37:02;;;;;;;6.63;5.35;;;16.20;87.70;;;;;;6119553;23;20005;-69
2021/06/16 07:39:29;;;;;;;6.38;4.82;;;16.20;87.60;;;;;;6117152;23;20010;-69
2021/06/16 07:41:55;;;;;;;6.60;5.35;;;16.30;87.70;;;;;;6119210;23;20506;-69
2021/06/16 07:44:22;;;;;;;5.75;5.18;;;16.30;87.60;;;;;;6120131;23;20002;-69
2021/06/16 07:46:48;;;;;;;5.50;4.95;;;16.30;87.60;;;;;;6118328;23;20002;-69
2021/06/16 07:49:55;;;;;;;6.38;5.25;;;16.30;87.50;;;;;;6121006;23;20432;-69
2021/06/16 07:52:21;;;;;;;6.03;4.97;;;16.30;87.50;;;;;;6118403;23;20347;-69
2021/06/16 07:55:27;;;;;;;4.90;4.13;;;16.40;88.30;;;;;;6119807;23;20453;-69
2021/06/16 07:57:54;;;;;;;5.38;4.80;;;16.40;87.60;;;;;;6122194;23;20017;-69
2021/06/16 08:00:20;;;;;;;6.78;5.22;;;16.40;87.60;;;;;;6120874;23;20017;-69
2021/06/16 08:02:47;;;;;;;5.07;4.22;;;16.40;87.60;;;;;;6122229;23;20474;-70
2021/06/16 08:05:14;;;;;;;5.60;5.03;;;16.40;87.60;;;;;;6121047;23;20082;-69
2021/06/16 08:07:42;;;;;;;5.20;3.97;;;16.40;87.70;;;;;;6122421;23;20005;-69
2021/06/16 08:10:09;;;;;;;5.18;4.68;;;16.50;87.70;;;;;;6121557;23;20102;-70
2021/06/16 08:12:36;;;;;;;4.47;3.97;;;16.50;87.70;;;;;;6120920;23;20006;-69
2021/06/16 08:15:04;;;;;;;5.47;4.60;;;16.50;87.70;;;;;;6122284;23;20005;-69
2021/06/16 08:17:30;;;;;;;5.53;4.63;;;16.50;87.70;;;;;;6120943;23;19998;-69
2021/06/16 08:19:57;;;;;;;4.13;3.75;;;16.50;87.80;;;;;;6122567;23;20081;-70
2021/06/16 08:22:23;;;;;;;5.47;4.65;;;16.50;87.80;;;;;;6121173;23;20001;-70
2021/06/16 08:24:50;;;;;;;5.88;4.35;;;16.60;87.90;;;;;;6122698;23;20410;-69
2021/06/16 08:27:16;;;;;;;6.65;4.50;;;16.60;87.90;;;;;;6122137;23;20316;-70
2021/06/16 08:29:43;;;;;;;5.10;4.55;;;16.60;87.90;;;;;;6121177;23;20025;-70
2021/06/16 08:32:09;;;;;;;5.45;4.68;;;16.60;87.90;;;;;;6122167;23;20008;-70
2021/06/16 08:34:36;;;;;;;4.57;4.15;;;16.60;88.00;;;;;;6121060;23;20001;-70
2021/06/16 08:37:05;;;;;;;4.30;3.90;;;16.60;88.00;;;;;;6122459;23;20057;-69
2021/06/16 08:39:32;;;;;;;7.60;4.40;;;16.70;88.10;;;;;;6120518;23;20439;-70
2021/06/16 08:41:59;;;;;;;6.55;5.10;;;16.70;88.10;;;;;;6121424;23;20020;-70
2021/06/16 08:44:26;;;;;;;4.72;4.13;;;16.70;88.20;;;;;;6121761;23;20002;-70
2021/06/16 08:46:54;;;;;;;5.75;4.78;;;16.70;88.30;;;;;;6119292;23;20455;-73
2021/06/16 08:49:20;;;;;;;6.53;5.35;;;16.70;88.30;;;;;;6122198;23;20006;-73
2021/06/16 08:51:47;;;;;;;9.98;6.65;;;16.80;88.30;;;;;;6120646;23;20504;-69
2021/06/16 08:54:13;;;;;;;29.60;23.02;;;16.80;88.40;;;;;;6121287;23;20448;-72
2021/06/16 08:56:40;;;;;;;16.05;14.20;;;16.80;88.50;;;;;;6120299;23;20013;-69
2021/06/16 08:59:07;;;;;;;13.93;10.13;;;16.80;88.50;;;;;;6121689;23;19998;-70
2021/06/16 09:01:34;;;;;;;9.98;8.35;;;16.90;88.60;;;;;;6120865;23;20021;-71
2021/06/16 09:04:01;;;;;;;9.90;7.70;;;16.90;88.60;;;;;;6121031;23;20005;-71
2021/06/16 09:06:29;;;;;;;9.52;7.88;;;16.90;88.70;;;;;;6122129;23;20010;-70
2021/06/16 09:09:09;;;;;;;9.27;7.45;;;16.90;88.80;;;;;;6120741;23;20021;-70
2021/06/16 09:11:45;;;;;;;9.20;7.00;;;17.00;88.90;;;;;;6122398;23;20006;-70
2021/06/16 09:14:15;;;;;;;7.13;6.20;;;17.00;88.70;;;;;;6121095;23;20007;-69
2021/06/16 09:16:42;;;;;;;9.88;6.90;;;17.10;88.80;;;;;;6122224;23;20076;-70
2021/06/16 09:19:24;;;;;;;17.42;13.52;;;17.10;88.70;;;;;;6121388;23;20002;-70
2021/06/16 09:22:03;;;;;;;8.27;7.45;;;17.10;88.60;;;;;;6119153;23;20049;-70
2021/06/16 09:24:56;;;;;;;8.75;6.82;;;17.20;88.50;;;;;;6122044;23;20063;-70
2021/06/16 09:27:43;;;;;;;7.15;6.32;;;17.20;88.40;;;;;;6121054;23;20006;-69
2021/06/16 09:30:32;;;;;;;10.02;5.22;;;17.30;88.60;;;;;;6120619;23;20350;-71
2021/06/16 09:33:04;;;;;;;4.95;4.45;;;17.40;88.70;;;;;;6122201;23;20002;-73
2021/06/16 09:35:37;;;;;;;38.40;30.88;;;17.40;88.10;;;;;;6120891;23;19998;-70
2021/06/16 09:38:11;;;;;;;15.05;13.25;;;17.50;87.10;;;;;;6120380;23;20509;-71
2021/06/16 09:40:43;;;;;;;6.38;4.90;;;17.60;86.90;;;;;;6121551;23;20100;-70
2021/06/16 09:43:15;;;;;;;4.72;4.22;;;17.60;86.10;;;;;;6119701;23;20009;-72
2021/06/16 09:45:44;;;;;;;10.88;8.63;;;17.70;85.70;;;;;;6122329;23;20081;-67
2021/06/16 09:48:34;;;;;;;12.02;9.40;;;17.90;87.30;;;;;;6120830;23;20045;-70
2021/06/16 09:51:10;;;;;;;18.50;8.35;;;18.00;88.40;;;;;;6121651;23;20497;-69
2021/06/16 09:54:16;;;;;;;11.75;6.22;;;18.20;87.30;;;;;;6120783;23;20006;-68
2021/06/16 09:57:02;;;;;;;12.35;6.75;;;18.20;86.70;;;;;;6122049;23;20006;-69
2021/06/16 09:59:43;;;;;;;13.65;7.38;;;18.20;86.00;;;;;;6120163;23;20072;-68
2021/06/16 10:02:21;;;;;;;8.45;5.65;;;18.20;86.00;;;;;;6120579;23;20667;-70
2021/06/16 10:04:59;;;;;;;6.05;3.80;;;18.20;85.60;;;;;;6120954;23;20081;-69
2021/06/16 10:07:31;;;;;;;6.80;4.30;;;18.10;84.00;;;;;;6122124;23;20002;-70
2021/06/16 10:10:03;;;;;;;6.72;4.95;;;18.20;83.70;;;;;;6117279;23;20022;-70
2021/06/16 10:12:31;;;;;;;7.03;4.72;;;18.20;83.10;;;;;;6118271;23;20060;-70
2021/06/16 10:15:00;;;;;;;8.82;4.78;;;18.20;82.90;;;;;;6119580;23;20009;-69
2021/06/16 10:17:27;;;;;;;45.63;35.00;;;18.30;83.10;;;;;;6121080;23;20441;-69
2021/06/16 10:19:54;;;;;;;10.23;7.30;;;18.30;83.20;;;;;;6121053;23;20002;-69
2021/06/16 10:22:22;;;;;;;6.00;4.68;;;18.40;82.40;;;;;;6121018;23;20040;-68
2021/06/16 10:24:49;;;;;;;6.38;3.90;;;18.30;81.70;;;;;;6122083;23;20067;-69
2021/06/16 10:27:24;;;;;;;5.95;3.20;;;18.40;81.50;;;;;;6120318;23;20410;-68
2021/06/16 10:29:52;;;;;;;4.23;3.57;;;18.50;80.90;;;;;;6121700;23;20429;-68
2021/06/16 10:32:19;;;;;;;4.30;3.35;;;18.50;80.40;;;;;;6120440;23;20462;-69
2021/06/16 10:34:52;;;;;;;5.82;2.95;;;18.50;80.20;;;;;;6121582;23;19998;-69
2021/06/16 10:37:43;;;;;;;3.85;2.80;;;18.50;79.90;;;;;;6121155;23;20013;-70
2021/06/16 10:40:19;;;;;;;5.05;3.17;;;18.50;79.70;;;;;;6106269;23;20350;-71
2021/06/16 10:43:09;;;;;;;3.08;2.70;;;18.50;79.50;;;;;;6121229;23;20269;-70
2021/06/16 10:45:41;;;;;;;4.97;3.30;;;18.50;79.20;;;;;;6119294;23;20006;-70
2021/06/16 10:48:09;;;;;;;7.93;3.42;;;18.50;79.60;;;;;;6119039;23;20029;-69
2021/06/16 10:50:48;;;;;;;4.28;2.67;;;18.50;79.70;;;;;;6121684;23;20002;-69
2021/06/16 10:53:25;;;;;;;6.97;5.82;;;18.50;79.40;;;;;;6120019;23;20006;-69
2021/06/16 10:55:55;;;;;;;9.80;4.68;;;18.60;80.00;;;;;;6116143;23;20020;-70
2021/06/16 10:58:45;;;;;;;5.93;3.50;;;18.50;80.20;;;;;;6120554;23;20081;-70
2021/06/16 11:01:30;;;;;;;4.05;3.45;;;18.50;80.50;;;;;;6120484;23;20033;-72
2021/06/16 11:03:57;;;;;;;5.55;3.55;;;18.50;80.70;;;;;;6121610;23;20002;-72
2021/06/16 11:06:33;;;;;;;9.68;3.75;;;18.40;81.00;;;;;;6120456;23;20005;-69
2021/06/16 11:09:02;;;;;;;13.38;7.38;;;18.40;81.20;;;;;;6120866;23;20346;-69
2021/06/16 11:11:47;;;;;;;19.08;11.52;;;18.40;81.40;;;;;;6120054;23;19998;-71
2021/06/16 11:14:32;;;;;;;23.88;16.42;;;18.30;81.60;;;;;;6120393;23;20088;-69
2021/06/16 11:17:31;;;;;;;14.90;8.88;;;18.30;81.80;;;;;;6121214;23;20446;-69
2021/06/16 11:20:02;;;;;;;12.52;8.48;;;18.30;81.80;;;;;;6119844;23;20085;-68
2021/06/16 11:22:29;;;;;;;18.45;7.85;;;18.30;81.90;;;;;;6119341;23;20009;-68
2021/06/16 11:25:29;;;;;;;10.90;5.75;;;18.20;81.60;;;;;;6122064;23;20002;-69
2021/06/16 11:28:14;;;;;;;5.45;4.88;;;18.20;81.50;;;;;;6121200;23;19998;-69
2021/06/16 11:30:58;;;;;;;11.10;4.60;;;18.20;81.50;;;;;;6122326;23;20006;-71
2021/06/16 11:33:46;;;;;;;6.88;3.75;;;18.10;81.50;;;;;;6124218;23;20053;-69
2021/06/16 11:36:17;;;;;;;6.15;3.88;;;18.10;81.50;;;;;;6098144;23;20057;-68
2021/06/16 11:39:07;;;;;;;5.80;4.10;;;18.10;81.50;;;;;;6122986;23;20009;-69
2021/06/16 11:41:34;;;;;;;6.03;3.80;;;18.10;81.60;;;;;;6123636;23;20017;-67
2021/06/16 11:44:12;;;;;;;5.05;3.97;;;18.10;81.70;;;;;;6122349;23;20005;-68
2021/06/16 11:46:47;;;;;;;6.20;4.43;;;18.00;81.80;;;;;;6123701;23;20123;-68
2021/06/16 11:49:20;;;;;;;9.20;4.80;;;18.00;82.10;;;;;;6119569;23;20414;-69
2021/06/16 11:51:51;;;;;;;7.80;4.63;;;18.00;82.20;;;;;;6122358;23;20002;-68
2021/06/16 11:56:53;;;;;;;5.97;4.68;;;18.00;82.20;;;;;;6122290;23;20016;-68
2021/06/16 11:59:39;;;;;;;4.53;4.13;;;17.90;82.20;;;;;;6121295;23;20371;-69
2021/06/16 12:02:26;;;;;;;6.50;5.22;;;17.90;82.10;;;;;;6121226;23;20092;-67
2021/06/16 12:04:55;;;;;;;4.97;4.13;;;17.90;82.10;;;;;;6122717;23;20065;-67
2021/06/16 12:07:27;;;;;;;8.77;4.38;;;17.90;82.00;;;;;;6120805;23;19998;-66
2021/06/16 12:09:59;;;;;;;8.63;4.95;;;17.90;82.10;;;;;;6121830;23;20479;-67
2021/06/16 12:12:27;;;;;;;7.25;4.75;;;18.00;82.10;;;;;;6121839;23;20025;-67
2021/06/16 12:15:13;;;;;;;8.77;4.07;;;18.00;82.10;;;;;;6120480;23;20057;-67
2021/06/16 12:18:00;;;;;;;7.05;4.50;;;18.00;82.00;;;;;;6122179;23;20330;-66
2021/06/16 12:20:39;;;;;;;7.75;4.85;;;18.00;81.80;;;;;;6120871;23;20181;-67
2021/06/16 12:23:28;;;;;;;5.07;4.10;;;18.00;81.70;;;;;;6119482;23;20006;-66
2021/06/16 12:26:18;;;;;;;8.52;4.65;;;18.00;81.40;;;;;;6122460;23;20100;-70
2021/06/16 12:28:54;;;;;;;8.27;5.75;;;18.00;81.30;;;;;;6121032;23;20032;-70
2021/06/16 12:31:29;;;;;;;8.07;3.80;;;18.00;81.30;;;;;;6122257;23;19998;-67
2021/06/16 12:36:34;;;;;;;3.80;3.38;;;18.10;80.70;;;;;;6121845;23;20443;-66
2021/06/16 12:39:03;;;;;;;6.20;3.72;;;18.10;80.30;;;;;;6122136;23;19998;-66
2021/06/16 12:41:34;;;;;;;5.80;3.58;;;18.10;80.10;;;;;;6120756;23;20020;-66
2021/06/16 12:44:15;;;;;;;4.68;2.88;;;18.10;79.80;;;;;;6121968;23;20006;-67
2021/06/16 12:47:10;;;;;;;3.22;2.90;;;18.10;79.60;;;;;;6121826;23;20080;-69
2021/06/16 12:49:43;;;;;;;4.30;3.42;;;18.10;79.40;;;;;;6120882;23;20086;-67
2021/06/16 12:52:12;;;;;;;8.90;3.63;;;18.10;79.30;;;;;;6122190;23;20385;-67
2021/06/16 12:54:47;;;;;;;6.88;3.90;;;18.10;79.40;;;;;;6120784;23;20002;-67
2021/06/16 12:57:15;;;;;;;5.25;3.63;;;18.10;79.50;;;;;;6122082;23;20006;-66
2021/06/16 12:59:48;;;;;;;6.68;3.33;;;18.00;79.70;;;;;;6121369;23;20069;-71
2021/06/16 13:02:26;;;;;;;8.73;5.85;;;18.10;79.80;;;;;;6122819;23;20045;-71
2021/06/16 13:05:04;;;;;;;20.85;16.70;;;18.10;80.00;;;;;;6121942;23;20002;-69
2021/06/16 13:07:44;;;;;;;8.38;6.30;;;18.10;80.00;;;;;;6120103;23;20042;-67
2021/06/16 13:10:39;;;;;;;6.57;4.57;;;18.10;80.00;;;;;;6120136;23;20022;-66
2021/06/16 13:13:08;;;;;;;4.65;4.18;;;18.10;80.00;;;;;;6110597;23;20010;-67